Time;durP1;ratioP1;P1;durP2;ratioP2;P2;SDS_P1;SDS_P2;PMS_P1;PMS_P2;Temp;Humidity;BMP_temperature;BMP_pressure;BME280_temperature;BME280_humidity;BME280_pressure;Samples;Min_cycle;Max_cycle;Signal;HPM_P1;HPM_P2
2023/12/28 00:00:35;;;;;;;11.88;8.68;;;;;;;10.75;75.21;99270.91;5098233;28;20498;-49
2023/12/28 00:03:00;;;;;;;9.60;4.20;;;;;;;10.73;75.11;99288.66;5098173;28;20020;-48
2023/12/28 00:05:26;;;;;;;19.00;15.05;;;;;;;10.65;75.24;99275.66;5098223;28;20056;-49
2023/12/28 00:07:57;;;;;;;6.03;4.72;;;;;;;10.65;75.42;99243.34;5096868;28;20085;-49
2023/12/28 00:10:27;;;;;;;8.48;4.38;;;;;;;10.74;75.86;99245.63;5098380;28;20481;-49
2023/12/28 00:12:54;;;;;;;7.10;4.53;;;;;;;10.78;75.35;99275.78;5098128;28;20066;-49
2023/12/28 00:15:19;;;;;;;9.68;4.55;;;;;;;10.78;74.88;99281.03;5097950;28;20031;-49
2023/12/28 00:17:45;;;;;;;6.97;3.65;;;;;;;10.68;74.99;99256.09;5098073;28;20024;-49
2023/12/28 00:20:12;;;;;;;6.88;4.15;;;;;;;10.64;75.52;99244.34;5097020;28;20031;-49
2023/12/28 00:22:38;;;;;;;8.45;3.85;;;;;;;10.62;75.51;99254.19;5098021;28;20035;-49
2023/12/28 00:25:04;;;;;;;8.10;4.55;;;;;;;10.66;74.95;99261.50;5096957;28;20028;-49
2023/12/28 00:27:30;;;;;;;9.63;4.18;;;;;;;10.60;74.93;99254.38;5097797;28;20146;-49
2023/12/28 00:29:56;;;;;;;7.05;3.95;;;;;;;10.54;75.62;99234.97;5096930;28;20024;-49
2023/12/28 00:32:22;;;;;;;12.45;10.13;;;;;;;10.59;74.93;99203.72;5097879;28;20031;-49
2023/12/28 00:34:47;;;;;;;8.55;4.50;;;;;;;10.53;75.51;99230.69;5098024;28;20111;-48
2023/12/28 00:37:13;;;;;;;6.18;4.80;;;;;;;10.58;75.23;99227.50;5096663;28;20488;-49
2023/12/28 00:39:40;;;;;;;6.63;4.40;;;;;;;10.63;74.99;99242.72;5094376;28;20106;-49
2023/12/28 00:42:06;;;;;;;11.38;6.03;;;;;;;10.55;75.06;99231.31;5093319;28;20027;-48
2023/12/28 00:44:32;;;;;;;7.57;3.92;;;;;;;10.55;75.75;99231.31;5094607;28;20102;-49
2023/12/28 00:46:58;;;;;;;6.78;3.80;;;;;;;10.55;76.04;99233.16;5093600;28;20057;-49
2023/12/28 00:49:24;;;;;;;8.52;4.43;;;;;;;10.57;76.26;99224.09;5094518;28;20024;-49
2023/12/28 00:51:49;;;;;;;8.57;4.70;;;;;;;10.65;75.72;99207.41;5094409;28;20047;-49
2023/12/28 00:54:19;;;;;;;8.95;5.07;;;;;;;10.65;75.90;99217.91;5093417;28;20020;-49
2023/12/28 00:56:45;;;;;;;12.18;3.65;;;;;;;10.68;76.29;99251.63;5094437;28;20044;-48
2023/12/28 00:59:11;;;;;;;8.43;4.00;;;;;;;10.54;76.26;99242.00;5093376;28;20499;-49
2023/12/28 01:01:36;;;;;;;7.90;3.97;;;;;;;10.52;77.26;99210.72;5092868;28;20565;-49
2023/12/28 01:04:02;;;;;;;9.43;4.22;;;;;;;10.54;77.01;99215.75;5094235;28;20020;-49
2023/12/28 01:06:28;;;;;;;11.65;3.28;;;;;;;10.53;76.81;99165.09;5092868;28;20020;-49
2023/12/28 01:08:56;;;;;;;6.22;3.50;;;;;;;10.52;76.71;99157.41;5094169;28;20039;-49
2023/12/28 01:11:22;;;;;;;8.85;5.18;;;;;;;10.53;76.93;99182.66;5094489;28;20306;-49
2023/12/28 01:13:48;;;;;;;8.38;4.95;;;;;;;10.53;77.61;99208.91;5094126;28;20074;-49
2023/12/28 01:16:14;;;;;;;9.25;3.95;;;;;;;10.51;77.93;99200.41;5093997;28;20027;-49
2023/12/28 01:18:40;;;;;;;7.65;3.65;;;;;;;10.47;77.71;99217.53;5092677;28;20092;-49
2023/12/28 01:21:06;;;;;;;7.13;4.68;;;;;;;10.40;77.32;99196.44;5093900;28;20024;-49
2023/12/28 01:23:32;;;;;;;7.63;4.13;;;;;;;10.35;77.25;99183.09;5093910;28;20068;-48
2023/12/28 01:25:59;;;;;;;4.32;2.78;;;;;;;10.41;77.03;99221.69;5093659;28;20525;-49
2023/12/28 01:28:28;;;;;;;5.65;2.80;;;;;;;10.37;76.71;99204.69;5075773;28;20457;-49
2023/12/28 01:30:54;;;;;;;11.13;5.53;;;;;;;10.37;76.69;99170.59;5075650;28;20040;-49
2023/12/28 01:33:20;;;;;;;9.38;5.13;;;;;;;10.48;76.27;99233.06;5092353;28;20036;-49
2023/12/28 01:35:45;;;;;;;7.35;4.22;;;;;;;10.46;76.11;99206.19;5093646;28;20509;-49
2023/12/28 01:38:11;;;;;;;7.35;4.22;;;;;;;10.44;76.68;99228.38;5093620;28;20028;-49
2023/12/28 01:40:37;;;;;;;8.98;3.83;;;;;;;10.47;76.55;99236.69;5093569;28;20024;-49
2023/12/28 01:43:03;;;;;;;10.25;3.72;;;;;;;10.51;76.64;99255.50;5093461;28;20035;-49
2023/12/28 01:45:29;;;;;;;7.68;3.55;;;;;;;10.59;75.25;99250.16;5092165;28;20024;-49
2023/12/28 01:47:57;;;;;;;8.40;2.70;;;;;;;10.59;75.69;99242.28;5093418;28;20028;-49
2023/12/28 01:50:25;;;;;;;10.10;3.95;;;;;;;10.63;76.70;99234.84;5093197;28;20371;-49
2023/12/28 01:52:52;;;;;;;9.10;3.60;;;;;;;10.60;75.83;99246.50;5093346;28;20030;-48
2023/12/28 01:55:18;;;;;;;10.35;3.92;;;;;;;10.61;76.81;99242.91;5093268;28;20497;-49
2023/12/28 01:57:45;;;;;;;8.52;3.80;;;;;;;10.69;75.73;99232.28;5091945;28;20497;-49
2023/12/28 02:00:11;;;;;;;7.38;3.75;;;;;;;10.75;75.28;99243.84;5093063;28;20037;-49
2023/12/28 02:02:37;;;;;;;8.95;3.28;;;;;;;10.71;75.77;99269.66;5093141;28;20033;-49
2023/12/28 02:05:04;;;;;;;8.18;3.75;;;;;;;10.65;76.00;99274.84;5091762;28;20028;-49
2023/12/28 02:07:32;;;;;;;4.88;2.97;;;;;;;10.75;75.53;99257.78;5093023;28;20028;-49
2023/12/28 02:09:57;;;;;;;7.38;2.67;;;;;;;10.72;74.61;99262.59;5093001;28;20027;-49
2023/12/28 02:12:23;;;;;;;6.10;2.90;;;;;;;10.62;75.79;99285.69;5092942;28;20039;-49
2023/12/28 02:14:49;;;;;;;4.82;3.45;;;;;;;10.58;77.29;99274.75;5091607;28;20036;-49
2023/12/28 02:17:33;;;;;;;7.03;3.92;;;;;;;10.63;77.26;99282.09;5092819;28;20099;-49
2023/12/28 02:20:00;;;;;;;6.82;3.60;;;;;;;10.62;76.63;99302.25;5091592;28;20031;-49
2023/12/28 02:22:27;;;;;;;5.05;3.42;;;;;;;10.63;76.13;99305.72;5091471;28;20027;-49
2023/12/28 02:25:11;;;;;;;9.43;5.20;;;;;;;10.59;76.69;99311.31;5091432;28;20024;-49
2023/12/28 02:27:43;;;;;;;8.60;4.28;;;;;;;10.68;76.44;99305.97;5091284;28;20036;-49
2023/12/28 02:30:10;;;;;;;19.67;13.50;;;;;;;10.68;76.02;99312.00;5091403;28;20036;-49
2023/12/28 02:33:02;;;;;;;13.95;9.02;;;;;;;10.69;76.56;99342.53;5091333;28;20177;-49
2023/12/28 02:35:43;;;;;;;11.63;5.90;;;;;;;10.62;75.95;99325.06;5092644;28;20047;-49
2023/12/28 02:38:17;;;;;;;9.30;4.85;;;;;;;10.57;76.48;99349.25;5092495;28;20127;-49
2023/12/28 02:40:44;;;;;;;10.18;5.22;;;;;;;10.58;76.76;99333.34;5092530;28;20434;-49
2023/12/28 02:43:11;;;;;;;5.25;3.15;;;;;;;10.55;76.47;99353.88;5091013;28;20448;-49
2023/12/28 02:45:37;;;;;;;5.32;3.80;;;;;;;10.57;76.74;99347.44;5092644;28;20054;-49
2023/12/28 02:48:04;;;;;;;7.18;3.42;;;;;;;10.65;76.67;99366.72;5091057;28;20111;-49
2023/12/28 02:50:31;;;;;;;7.68;3.80;;;;;;;10.72;76.53;99338.72;5091000;28;20020;-49
2023/12/28 02:52:57;;;;;;;5.95;4.30;;;;;;;10.79;77.29;99355.38;5092248;28;20043;-49
2023/12/28 02:55:23;;;;;;;5.95;3.33;;;;;;;10.95;76.39;99339.38;5092147;28;20019;-49
2023/12/28 02:57:50;;;;;;;9.13;4.80;;;;;;;10.99;76.60;99352.97;5090902;28;20024;-49
2023/12/28 03:00:16;;;;;;;5.28;3.30;;;;;;;11.17;76.15;99355.97;5091782;28;20382;-49
2023/12/28 03:02:43;;;;;;;6.57;3.58;;;;;;;11.34;75.18;99358.34;5090504;28;20035;-49
2023/12/28 03:05:08;;;;;;;10.82;5.03;;;;;;;11.19;74.17;99367.09;5091994;28;20031;-49
2023/12/28 03:07:35;;;;;;;7.78;4.32;;;;;;;11.10;74.18;99354.28;5091996;28;20028;-49
2023/12/28 03:10:02;;;;;;;6.43;3.85;;;;;;;11.06;74.94;99355.66;5090698;28;20036;-49
2023/12/28 03:12:30;;;;;;;5.57;4.10;;;;;;;11.06;74.88;99351.19;5091936;28;20034;-49
2023/12/28 03:14:55;;;;;;;9.65;4.95;;;;;;;11.02;75.07;99351.75;5090579;28;20016;-49
2023/12/28 03:17:21;;;;;;;8.20;3.83;;;;;;;11.18;75.09;99360.19;5091877;28;20072;-49
2023/12/28 03:19:47;;;;;;;9.20;4.35;;;;;;;11.26;75.04;99358.47;5091934;28;20497;-50
2023/12/28 03:22:13;;;;;;;6.55;4.28;;;;;;;11.37;74.98;99350.91;5091781;28;20060;-49
2023/12/28 03:24:40;;;;;;;7.85;4.03;;;;;;;11.36;74.50;99345.81;5090648;28;20048;-49
2023/12/28 03:27:06;;;;;;;8.07;3.58;;;;;;;11.57;73.85;99337.91;5091645;28;20052;-49
2023/12/28 03:29:31;;;;;;;5.70;3.67;;;;;;;11.50;73.38;99336.22;5091847;28;20031;-49
2023/12/28 03:31:57;;;;;;;6.55;4.05;;;;;;;11.43;73.09;99330.94;5090448;28;20024;-49
2023/12/28 03:34:23;;;;;;;7.88;4.40;;;;;;;11.33;73.75;99312.84;5090441;28;20486;-49
2023/12/28 03:36:50;;;;;;;5.93;4.22;;;;;;;11.39;74.09;99332.31;5090490;28;20028;-49
2023/12/28 03:39:15;;;;;;;8.68;4.07;;;;;;;11.24;74.33;99327.13;5090669;28;20098;-49
2023/12/28 03:41:41;;;;;;;7.15;3.83;;;;;;;11.06;74.26;99329.38;5091620;28;20486;-49
2023/12/28 03:44:07;;;;;;;27.75;21.05;;;;;;;10.93;75.42;99328.25;5091731;28;20073;-50
2023/12/28 03:46:32;;;;;;;11.20;7.95;;;;;;;10.87;76.11;99342.13;5090373;28;20024;-49
2023/12/28 03:48:58;;;;;;;6.38;4.05;;;;;;;10.84;76.56;99328.53;5091725;28;20506;-49
2023/12/28 03:51:24;;;;;;;8.18;4.30;;;;;;;10.76;76.42;99339.97;5090287;28;20429;-49
2023/12/28 03:53:50;;;;;;;9.73;4.78;;;;;;;10.76;76.34;99329.47;5091629;28;20489;-49
2023/12/28 03:56:23;;;;;;;7.93;4.20;;;;;;;10.63;77.27;99311.78;5090312;28;20035;-49
2023/12/28 03:58:49;;;;;;;7.70;4.07;;;;;;;10.65;77.94;99325.53;5091643;28;20032;-49
2023/12/28 04:01:17;;;;;;;5.75;2.83;;;;;;;10.79;77.11;99323.88;5091485;28;20028;-49
2023/12/28 04:03:43;;;;;;;6.43;3.63;;;;;;;10.78;76.96;99312.56;5090200;28;20060;-49
2023/12/28 04:06:09;;;;;;;5.55;3.70;;;;;;;10.71;75.75;99309.03;5091446;28;20569;-49
2023/12/28 04:08:35;;;;;;;9.68;4.50;;;;;;;10.64;76.35;99302.06;5090207;28;20139;-49
2023/12/28 04:11:01;;;;;;;7.75;3.45;;;;;;;10.53;76.42;99317.31;5090138;28;20020;-49
2023/12/28 04:13:26;;;;;;;10.32;3.53;;;;;;;10.34;76.46;99302.13;5092940;28;20103;-49
2023/12/28 04:15:52;;;;;;;6.22;3.13;;;;;;;10.24;77.32;99305.03;5093894;28;20123;-49
2023/12/28 04:18:18;;;;;;;5.28;4.00;;;;;;;10.29;77.72;99307.09;5095064;28;20050;-49
2023/12/28 04:20:46;;;;;;;6.07;3.03;;;;;;;10.37;76.83;99302.59;5093862;28;20024;-49
2023/12/28 04:23:12;;;;;;;4.95;3.53;;;;;;;10.30;77.26;99309.56;5095030;28;20062;-49
2023/12/28 04:25:38;;;;;;;9.43;4.18;;;;;;;10.23;77.10;99302.59;5093481;28;20065;-50
2023/12/28 04:28:04;;;;;;;6.22;3.35;;;;;;;10.12;77.07;99316.97;5095056;28;20398;-49
2023/12/28 04:30:30;;;;;;;6.70;3.72;;;;;;;10.03;77.77;99310.19;5094952;28;20119;-49
2023/12/28 04:32:55;;;;;;;5.63;2.97;;;;;;;10.36;78.02;99300.97;5094959;28;20422;-50
2023/12/28 04:35:21;;;;;;;7.90;3.47;;;;;;;10.66;76.17;99286.94;5094859;28;20020;-49
2023/12/28 04:37:47;;;;;;;6.10;3.75;;;;;;;10.76;74.08;99308.47;5094837;28;20024;-49
2023/12/28 04:40:14;;;;;;;9.13;3.28;;;;;;;10.56;73.87;99295.13;5094797;28;20541;-49
2023/12/28 04:42:40;;;;;;;4.57;2.97;;;;;;;10.62;76.00;99301.44;5094892;28;20051;-49
2023/12/28 04:45:07;;;;;;;5.20;3.20;;;;;;;11.10;75.92;99305.16;5093357;28;20020;-49
2023/12/28 04:47:33;;;;;;;9.00;3.25;;;;;;;11.36;72.58;99296.69;5093365;28;20042;-49
2023/12/28 04:49:59;;;;;;;7.38;3.20;;;;;;;11.27;71.76;99297.84;5094681;28;20367;-50
2023/12/28 04:52:24;;;;;;;4.82;2.60;;;;;;;11.25;72.35;99305.09;5094491;28;20095;-49
2023/12/28 04:54:50;;;;;;;5.90;2.78;;;;;;;11.16;70.89;99296.53;5093236;28;20035;-49
2023/12/28 04:57:16;;;;;;;6.25;3.20;;;;;;;10.95;71.64;99297.34;5076361;28;20028;-49
2023/12/28 04:59:42;;;;;;;3.72;2.80;;;;;;;10.90;71.71;99298.91;5094473;28;20020;-49
2023/12/28 05:02:08;;;;;;;5.18;3.05;;;;;;;10.70;71.63;99304.75;5094280;28;20434;-49
2023/12/28 05:04:38;;;;;;;9.82;3.15;;;;;;;10.52;71.76;99302.56;5094381;28;20105;-49
2023/12/28 05:07:04;;;;;;;5.60;3.13;;;;;;;10.47;73.05;99307.56;5094299;28;20140;-49
2023/12/28 05:09:31;;;;;;;5.43;2.92;;;;;;;10.59;73.05;99318.38;5094225;28;20035;-49
2023/12/28 05:11:56;;;;;;;5.57;2.88;;;;;;;10.59;72.84;99306.06;5094144;28;20055;-49
2023/12/28 05:14:22;;;;;;;8.95;3.65;;;;;;;10.54;73.00;99302.38;5092859;28;20509;-49
2023/12/28 05:16:48;;;;;;;11.18;3.17;;;;;;;10.60;72.33;99293.75;5094056;28;20023;-49
2023/12/28 05:19:14;;;;;;;8.32;3.28;;;;;;;10.53;73.25;99291.06;5092696;28;20050;-49
2023/12/28 05:21:40;;;;;;;4.65;3.03;;;;;;;10.50;72.67;99301.13;5092659;28;20067;-49
2023/12/28 05:24:06;;;;;;;8.18;3.10;;;;;;;10.30;72.95;99303.50;5093360;28;20028;-49
2023/12/28 05:26:32;;;;;;;6.38;3.53;;;;;;;10.19;73.53;99302.13;5092309;28;20133;-49
2023/12/28 05:28:57;;;;;;;6.43;2.90;;;;;;;10.13;74.21;99302.88;5093824;28;20047;-49
2023/12/28 05:31:23;;;;;;;2.95;2.47;;;;;;;10.05;74.74;99309.00;5093773;28;20517;-49
2023/12/28 05:33:49;;;;;;;7.47;3.13;;;;;;;9.88;75.11;99300.53;5092504;28;20039;-49
2023/12/28 05:36:15;;;;;;;5.63;2.90;;;;;;;9.86;75.63;99292.03;5093725;28;20125;-49
2023/12/28 05:38:40;;;;;;;12.55;2.72;;;;;;;10.02;76.04;99292.81;5093669;28;20508;-49
2023/12/28 05:41:06;;;;;;;5.68;2.92;;;;;;;10.08;74.86;99281.59;5093615;28;20490;-49
2023/12/28 05:43:32;;;;;;;4.95;2.13;;;;;;;10.13;75.26;99282.69;5093499;28;20127;-49
2023/12/28 05:45:58;;;;;;;4.93;2.75;;;;;;;10.16;74.82;99277.09;5093471;28;20100;-49
2023/12/28 05:48:23;;;;;;;4.68;2.70;;;;;;;10.07;75.20;99274.75;5093501;28;20116;-49
2023/12/28 05:50:49;;;;;;;4.03;2.55;;;;;;;10.02;75.00;99266.59;5092149;28;20093;-49
2023/12/28 05:53:15;;;;;;;8.88;2.75;;;;;;;9.97;75.33;99277.63;5093370;28;20051;-49
2023/12/28 05:55:41;;;;;;;8.65;3.67;;;;;;;9.85;75.79;99279.09;5093344;28;20375;-49
2023/12/28 05:58:07;;;;;;;7.07;4.60;;;;;;;9.89;75.96;99282.97;5091967;28;20065;-49
2023/12/28 06:00:32;;;;;;;5.63;2.95;;;;;;;9.98;75.88;99279.28;5093244;28;20028;-49
2023/12/28 06:02:58;;;;;;;3.75;2.60;;;;;;;10.02;75.65;99271.84;5093195;28;20063;-49
2023/12/28 06:05:24;;;;;;;5.57;3.20;;;;;;;10.08;75.33;99284.22;5093144;28;20052;-49
2023/12/28 06:07:50;;;;;;;4.55;2.70;;;;;;;10.07;74.92;99280.78;5093120;28;20116;-49
2023/12/28 06:10:15;;;;;;;3.20;2.17;;;;;;;10.15;74.69;99285.13;5091779;28;20040;-49
2023/12/28 06:12:41;;;;;;;6.00;2.53;;;;;;;10.11;75.16;99282.06;5091673;28;20035;-50
2023/12/28 06:15:07;;;;;;;5.43;2.55;;;;;;;10.14;75.12;99280.88;5092975;28;20055;-49
2023/12/28 06:17:33;;;;;;;6.55;4.53;;;;;;;10.08;74.85;99295.53;5091628;28;20078;-49
2023/12/28 06:19:59;;;;;;;3.95;2.83;;;;;;;10.04;75.16;99293.44;5092820;28;20024;-49
2023/12/28 06:22:27;;;;;;;3.33;2.75;;;;;;;10.17;74.66;99299.69;5092756;28;20028;-49
2023/12/28 06:24:54;;;;;;;6.90;3.05;;;;;;;10.27;74.23;99294.16;5091615;28;20028;-49
2023/12/28 06:27:21;;;;;;;4.55;2.53;;;;;;;10.32;73.70;99291.84;5091029;28;20055;-49
2023/12/28 06:29:47;;;;;;;3.97;2.67;;;;;;;10.34;73.32;99283.78;5092687;28;20032;-50
2023/12/28 06:32:12;;;;;;;4.47;2.65;;;;;;;10.27;73.78;99281.03;5091329;28;20020;-49
2023/12/28 06:34:38;;;;;;;3.70;2.35;;;;;;;10.28;73.59;99280.06;5092585;28;20051;-49
2023/12/28 06:37:04;;;;;;;6.00;3.38;;;;;;;10.26;73.64;99286.47;5090397;28;20068;-49
2023/12/28 06:39:29;;;;;;;5.80;3.10;;;;;;;10.21;73.83;99292.28;5091247;28;20036;-47
2023/12/28 06:41:55;;;;;;;9.18;3.78;;;;;;;10.14;74.27;99307.94;5092407;28;20024;-47
2023/12/28 06:44:21;;;;;;;6.63;2.90;;;;;;;10.26;73.83;99316.16;5092415;28;20091;-47
2023/12/28 06:46:46;;;;;;;4.43;2.55;;;;;;;10.29;73.35;99312.34;5092432;28;20012;-47
2023/12/28 06:49:12;;;;;;;5.68;3.47;;;;;;;10.20;74.14;99320.31;5092354;28;20035;-47
2023/12/28 06:51:38;;;;;;;5.03;3.58;;;;;;;10.42;73.50;99317.78;5092365;28;20016;-47
2023/12/28 06:54:03;;;;;;;7.05;3.35;;;;;;;10.61;72.29;99313.75;5092272;28;20027;-49
2023/12/28 06:56:29;;;;;;;5.43;2.75;;;;;;;10.67;71.31;99315.66;5092278;28;20031;-49
2023/12/28 06:58:55;;;;;;;5.95;3.90;;;;;;;10.62;71.61;99309.31;5092250;28;20050;-49
2023/12/28 07:01:21;;;;;;;6.63;3.28;;;;;;;10.56;71.38;99303.84;5092145;28;20013;-49
2023/12/28 07:03:47;;;;;;;6.15;2.30;;;;;;;10.56;71.91;99288.09;5091988;28;20024;-49
2023/12/28 07:06:14;;;;;;;5.72;2.15;;;;;;;10.59;71.54;99284.28;5092055;28;20417;-49
2023/12/28 07:08:39;;;;;;;4.13;3.00;;;;;;;10.51;71.73;99292.25;5073957;28;20028;-49
2023/12/28 07:11:05;;;;;;;5.75;2.58;;;;;;;10.36;72.46;99289.63;5091992;28;20020;-49
2023/12/28 07:13:31;;;;;;;3.95;2.55;;;;;;;10.39;72.86;99289.28;5091977;28;20532;-49
2023/12/28 07:15:57;;;;;;;6.30;3.15;;;;;;;10.28;72.73;99284.47;5092306;28;20047;-50
2023/12/28 07:18:23;;;;;;;5.40;3.40;;;;;;;10.28;72.98;99281.84;5091919;28;20481;-49
2023/12/28 07:20:49;;;;;;;4.75;3.15;;;;;;;10.14;73.48;99281.69;5091952;28;20031;-49
2023/12/28 07:23:14;;;;;;;4.63;3.40;;;;;;;10.15;73.72;99282.50;5092073;28;20024;-49
2023/12/28 07:25:41;;;;;;;5.13;3.63;;;;;;;10.14;73.73;99294.81;5090331;28;20020;-50
2023/12/28 07:28:06;;;;;;;7.13;3.60;;;;;;;10.11;74.33;99286.50;5091858;28;20028;-49
2023/12/28 07:30:32;;;;;;;5.15;3.75;;;;;;;10.13;74.83;99285.31;5091860;28;20027;-49
2023/12/28 07:32:58;;;;;;;4.75;2.55;;;;;;;10.28;74.30;99289.72;5092072;28;20498;-49
2023/12/28 07:35:23;;;;;;;4.28;2.83;;;;;;;10.46;73.54;99287.53;5091764;28;20402;-49
2023/12/28 07:37:49;;;;;;;4.70;2.80;;;;;;;10.53;73.45;99275.31;5090440;28;20035;-49
2023/12/28 07:40:15;;;;;;;7.25;3.42;;;;;;;10.56;72.98;99274.97;5091721;28;20077;-49
2023/12/28 07:42:41;;;;;;;5.90;3.22;;;;;;;10.71;72.60;99264.41;5091716;28;20486;-49
2023/12/28 07:45:07;;;;;;;6.80;3.08;;;;;;;10.66;72.31;99244.97;5091674;28;20562;-49
2023/12/28 07:47:33;;;;;;;5.35;2.55;;;;;;;10.62;72.45;99257.63;5092346;28;20047;-49
2023/12/28 07:50:00;;;;;;;3.42;2.90;;;;;;;10.54;72.85;99255.13;5095752;28;20027;-49
2023/12/28 07:52:26;;;;;;;8.02;2.85;;;;;;;10.55;72.81;99268.06;5095605;28;20031;-49
2023/12/28 07:54:52;;;;;;;5.80;4.63;;;;;;;10.55;72.96;99265.44;5095724;28;20024;-49
2023/12/28 07:57:18;;;;;;;5.38;3.20;;;;;;;10.73;72.28;99257.16;5094349;28;20024;-49
2023/12/28 07:59:44;;;;;;;5.20;3.30;;;;;;;10.74;72.43;99257.97;5095574;28;20094;-49
2023/12/28 08:02:09;;;;;;;5.68;2.72;;;;;;;10.86;72.75;99255.66;5094180;28;20028;-49
2023/12/28 08:04:35;;;;;;;9.98;3.05;;;;;;;10.99;72.00;99264.47;5094212;28;20020;-49
2023/12/28 08:07:01;;;;;;;9.02;3.63;;;;;;;11.15;71.00;99258.13;5094107;28;20013;-49
2023/12/28 08:09:27;;;;;;;7.10;3.17;;;;;;;11.26;71.02;99277.00;5094173;28;20028;-49
2023/12/28 08:11:52;;;;;;;12.38;3.33;;;;;;;11.33;69.88;99273.44;5094038;28;20507;-49
2023/12/28 08:14:19;;;;;;;6.30;3.00;;;;;;;11.39;69.31;99272.66;5093982;28;20028;-50
2023/12/28 08:16:44;;;;;;;3.65;2.33;;;;;;;11.65;69.68;99288.81;5095205;28;20067;-49
2023/12/28 08:19:11;;;;;;;8.13;3.25;;;;;;;11.94;69.15;99272.03;5095210;28;20051;-49
2023/12/28 08:21:36;;;;;;;33.95;30.35;;;;;;;12.15;67.00;99292.16;5093941;28;20021;-49
2023/12/28 08:24:02;;;;;;;18.05;10.43;;;;;;;12.27;67.26;99279.25;5095034;28;20028;-50
2023/12/28 08:26:28;;;;;;;7.25;3.90;;;;;;;12.59;67.68;99277.75;5094804;28;20089;-50
2023/12/28 08:28:54;;;;;;;9.32;3.25;;;;;;;12.80;64.06;99282.06;5094018;28;20428;-47
2023/12/28 08:31:19;;;;;;;5.60;2.88;;;;;;;12.64;63.91;99277.97;5094997;28;20468;-49
2023/12/28 08:33:45;;;;;;;6.13;2.95;;;;;;;12.91;64.44;99288.56;5095259;28;20062;-49
2023/12/28 08:36:11;;;;;;;3.40;2.35;;;;;;;12.90;61.42;99282.47;5094923;28;20486;-49
2023/12/28 08:38:38;;;;;;;5.55;2.70;;;;;;;12.65;62.22;99292.75;5076744;28;20028;-49
2023/12/28 08:41:08;;;;;;;4.03;2.75;;;;;;;12.52;62.56;99284.81;5094843;28;20028;-49
2023/12/28 08:43:36;;;;;;;3.30;2.30;;;;;;;12.49;63.01;99282.56;5094733;28;20048;-49
2023/12/28 08:46:02;;;;;;;6.95;5.40;;;;;;;12.38;63.41;99278.69;5093319;28;20498;-49
2023/12/28 08:48:27;;;;;;;20.30;18.25;;;;;;;12.45;63.57;99289.25;5093424;28;20046;-49
2023/12/28 08:50:53;;;;;;;5.22;3.70;;;;;;;12.51;63.26;99285.81;5094672;28;20020;-49
2023/12/28 08:53:19;;;;;;;6.97;4.05;;;;;;;12.53;63.31;99294.34;5093332;28;20031;-49
2023/12/28 08:55:44;;;;;;;4.22;3.20;;;;;;;12.60;62.64;99303.06;5093282;28;20032;-49
2023/12/28 08:58:10;;;;;;;4.30;3.30;;;;;;;12.55;62.48;99281.78;5094048;28;20509;-49
2023/12/28 09:00:36;;;;;;;3.83;2.63;;;;;;;12.59;62.43;99291.72;5094223;28;20424;-49
2023/12/28 09:03:02;;;;;;;8.25;3.83;;;;;;;12.70;63.28;99289.53;5092993;28;20112;-49
2023/12/28 09:05:27;;;;;;;6.53;2.50;;;;;;;13.03;61.58;99281.69;5094286;28;20024;-49
2023/12/28 09:07:53;;;;;;;4.05;2.00;;;;;;;13.03;59.85;99289.59;5093075;28;20077;-49
2023/12/28 09:10:19;;;;;;;6.90;3.17;;;;;;;12.89;59.92;99278.22;5092903;28;20024;-49
2023/12/28 09:12:45;;;;;;;7.75;2.92;;;;;;;12.74;60.29;99286.31;5094231;28;20034;-49
2023/12/28 09:15:12;;;;;;;3.78;2.58;;;;;;;12.93;61.25;99270.72;5094385;28;20095;-49
2023/12/28 09:17:37;;;;;;;3.40;1.92;;;;;;;13.16;60.00;99276.44;5094113;28;20031;-49
2023/12/28 09:20:06;;;;;;;3.05;2.30;;;;;;;13.25;59.29;99292.84;5094009;28;20024;-49
2023/12/28 09:22:31;;;;;;;4.20;2.05;;;;;;;13.29;59.13;99296.72;5093830;28;20066;-49
2023/12/28 09:24:57;;;;;;;5.30;3.08;;;;;;;13.36;58.70;99299.34;5093967;28;20472;-49
2023/12/28 09:27:26;;;;;;;3.10;2.20;;;;;;;13.72;58.16;99313.94;5093656;28;20040;-49
2023/12/28 09:29:51;;;;;;;5.50;2.50;;;;;;;13.96;57.35;99318.59;5092578;28;20020;-48
2023/12/28 09:32:17;;;;;;;4.78;2.70;;;;;;;14.14;56.86;99309.19;5092781;28;20036;-49
2023/12/28 09:34:43;;;;;;;4.18;2.00;;;;;;;14.21;56.68;99325.81;5092768;28;20070;-49
2023/12/28 09:37:09;;;;;;;4.50;2.92;;;;;;;14.09;55.83;99317.72;5092642;28;20039;-49
2023/12/28 09:39:35;;;;;;;4.95;2.22;;;;;;;14.05;55.61;99329.72;5092671;28;20028;-47
2023/12/28 09:42:06;;;;;;;4.57;2.00;;;;;;;14.29;55.26;99330.88;5093549;28;20024;-47
2023/12/28 09:44:34;;;;;;;4.85;2.35;;;;;;;14.86;54.39;99332.88;5093695;28;20024;-47
2023/12/28 09:47:02;;;;;;;2.53;1.90;;;;;;;15.21;51.92;99343.81;5093545;28;20391;-49
2023/12/28 09:49:30;;;;;;;3.35;2.67;;;;;;;15.66;50.82;99356.13;5093550;28;20016;-49
2023/12/28 09:51:57;;;;;;;3.97;2.40;;;;;;;16.10;49.75;99341.88;5093493;28;20099;-47
2023/12/28 09:54:24;;;;;;;61.67;55.33;;;;;;;16.90;49.62;99337.44;5093293;28;20024;-47
2023/12/28 09:56:50;;;;;;;32.67;24.30;;;;;;;18.27;47.36;99346.25;5092262;28;20100;-47
2023/12/28 09:59:17;;;;;;;6.72;3.08;;;;;;;19.77;42.92;99351.34;5092030;28;20528;-47
2023/12/28 10:01:46;;;;;;;4.03;2.80;;;;;;;20.62;41.48;99345.78;5093218;28;20051;-48
2023/12/28 10:04:11;;;;;;;6.25;2.63;;;;;;;21.17;40.10;99351.94;5093374;28;20119;-47
2023/12/28 10:06:37;;;;;;;13.65;8.27;;;;;;;21.02;37.11;99356.06;5093127;28;20095;-48
2023/12/28 10:09:03;;;;;;;5.50;2.35;;;;;;;19.81;39.25;99333.03;5093121;28;20016;-48
2023/12/28 10:11:29;;;;;;;4.10;2.08;;;;;;;19.23;40.34;99322.53;5091698;28;20032;-47
2023/12/28 10:13:55;;;;;;;5.18;2.38;;;;;;;18.98;40.89;99308.81;5093042;28;20016;-47
2023/12/28 10:16:21;;;;;;;6.15;2.10;;;;;;;18.93;41.41;99309.50;5093016;28;20371;-47
2023/12/28 10:18:47;;;;;;;7.25;2.13;;;;;;;18.80;41.18;99320.47;5092898;28;20039;-47
2023/12/28 10:21:13;;;;;;;5.97;2.28;;;;;;;18.62;41.62;99330.19;5091530;28;20020;-47
2023/12/28 10:23:40;;;;;;;7.75;2.20;;;;;;;18.28;42.01;99330.06;5091453;28;20056;-47
2023/12/28 10:26:06;;;;;;;2.10;1.60;;;;;;;18.00;41.83;99330.81;5092542;28;20126;-47
2023/12/28 10:28:39;;;;;;;2.35;1.50;;;;;;;18.10;42.32;99340.84;5091559;28;20040;-47
2023/12/28 10:31:05;;;;;;;2.35;2.13;;;;;;;18.45;41.67;99316.88;5092687;28;20031;-47
2023/12/28 10:33:38;;;;;;;17.08;14.05;;;;;;;17.81;42.38;99313.34;5092642;28;20048;-47
2023/12/28 10:36:06;;;;;;;3.08;2.25;;;;;;;17.37;43.50;99313.72;5092814;28;20427;-47
2023/12/28 10:38:37;;;;;;;2.50;1.95;;;;;;;16.87;43.90;99314.84;5091501;28;20507;-47
2023/12/28 10:41:14;;;;;;;4.70;2.40;;;;;;;16.59;45.38;99323.38;5092571;28;20032;-47
2023/12/28 10:43:47;;;;;;;3.30;2.03;;;;;;;16.78;45.50;99321.47;5091475;28;20028;-47
2023/12/28 10:46:26;;;;;;;3.33;2.20;;;;;;;16.74;45.09;99344.16;5092346;28;20106;-47
2023/12/28 10:48:58;;;;;;;5.53;2.03;;;;;;;16.49;45.48;99328.38;5091368;28;20432;-47
2023/12/28 10:51:27;;;;;;;3.00;1.83;;;;;;;16.30;45.78;99333.72;5092317;28;20031;-47
2023/12/28 10:54:04;;;;;;;4.43;2.20;;;;;;;16.06;46.46;99337.25;5091083;28;20129;-47
2023/12/28 10:56:35;;;;;;;3.83;2.40;;;;;;;15.93;47.63;99338.16;5090987;28;20517;-47
2023/12/28 10:59:24;;;;;;;7.43;2.20;;;;;;;16.20;47.40;99314.06;5092279;28;20027;-47
2023/12/28 11:01:54;;;;;;;3.40;2.15;;;;;;;16.70;45.89;99285.50;5092199;28;20047;-47
2023/12/28 11:04:41;;;;;;;3.47;1.90;;;;;;;17.24;45.09;99263.50;5073917;28;20051;-47
2023/12/28 11:07:09;;;;;;;5.20;2.13;;;;;;;18.63;42.17;99272.50;5092164;28;20028;-46
2023/12/28 11:09:36;;;;;;;4.45;3.47;;;;;;;19.35;40.30;99285.19;5090797;28;20416;-46
2023/12/28 11:12:07;;;;;;;4.13;2.03;;;;;;;19.97;39.81;99256.78;5091932;28;20024;-46
2023/12/28 11:14:34;;;;;;;4.13;1.70;;;;;;;20.37;38.21;99251.09;5090728;28;20028;-46
2023/12/28 11:17:03;;;;;;;4.57;2.10;;;;;;;19.79;38.97;99242.69;5090663;28;20081;-46
2023/12/28 11:19:31;;;;;;;3.50;1.90;;;;;;;19.49;39.64;99240.41;5090545;28;20020;-46
2023/12/28 11:21:59;;;;;;;2.67;1.65;;;;;;;19.08;40.09;99227.31;5090122;28;20020;-46
2023/12/28 11:24:30;;;;;;;4.13;1.65;;;;;;;18.75;40.84;99234.19;5091926;28;20085;-46
2023/12/28 11:26:56;;;;;;;4.93;2.53;;;;;;;18.50;41.55;99213.28;5091681;28;20048;-45
2023/12/28 11:29:24;;;;;;;2.72;1.80;;;;;;;17.88;42.39;99221.16;5090854;28;20052;-47